sensor_id;sensor_type;location;lat;lon;timestamp;P1;durP1;ratioP1;P2;durP2;ratioP2
8333;SDS011;4204;43.004;23.052;2023-12-20T07:43:41;7.37;;;4.30;;
8333;SDS011;4204;43.004;23.052;2023-12-20T07:46:09;17.00;;;10.27;;
8333;SDS011;4204;43.004;23.052;2023-12-20T07:48:37;13.37;;;8.93;;
8333;SDS011;4204;43.004;23.052;2023-12-20T07:51:05;25.47;;;16.03;;
8333;SDS011;4204;43.004;23.052;2023-12-20T07:53:34;19.47;;;12.73;;
8333;SDS011;4204;43.004;23.052;2023-12-20T07:56:02;22.13;;;13.97;;
8333;SDS011;4204;43.004;23.052;2023-12-20T07:58:29;17.70;;;12.60;;
8333;SDS011;4204;43.004;23.052;2023-12-20T08:00:58;14.27;;;9.43;;
8333;SDS011;4204;43.004;23.052;2023-12-20T08:03:26;11.13;;;8.07;;
8333;SDS011;4204;43.004;23.052;2023-12-20T08:05:54;15.60;;;9.17;;
8333;SDS011;4204;43.004;23.052;2023-12-20T08:08:22;8.30;;;5.57;;
8333;SDS011;4204;43.004;23.052;2023-12-20T08:10:50;6.93;;;4.90;;
8333;SDS011;4204;43.004;23.052;2023-12-20T08:13:17;4.83;;;3.40;;
8333;SDS011;4204;43.004;23.052;2023-12-20T08:15:45;4.50;;;3.00;;
8333;SDS011;4204;43.004;23.052;2023-12-20T08:18:14;2.97;;;2.50;;
8333;SDS011;4204;43.004;23.052;2023-12-20T08:20:41;7.13;;;2.40;;
8333;SDS011;4204;43.004;23.052;2023-12-20T08:23:09;2.93;;;2.20;;
8333;SDS011;4204;43.004;23.052;2023-12-20T08:25:36;36.97;;;18.33;;
8333;SDS011;4204;43.004;23.052;2023-12-20T08:28:04;153.73;;;56.63;;
8333;SDS011;4204;43.004;23.052;2023-12-20T08:30:32;24.83;;;11.23;;
8333;SDS011;4204;43.004;23.052;2023-12-20T08:33:00;3.60;;;2.70;;
8333;SDS011;4204;43.004;23.052;2023-12-20T08:35:30;3.30;;;2.10;;
8333;SDS011;4204;43.004;23.052;2023-12-20T08:37:57;2.17;;;1.80;;
8333;SDS011;4204;43.004;23.052;2023-12-20T08:40:25;2.03;;;1.67;;
8333;SDS011;4204;43.004;23.052;2023-12-20T08:42:52;2.53;;;1.80;;
8333;SDS011;4204;43.004;23.052;2023-12-20T08:45:21;2.50;;;1.77;;
8333;SDS011;4204;43.004;23.052;2023-12-20T08:47:48;1.90;;;1.67;;
8333;SDS011;4204;43.004;23.052;2023-12-20T08:50:16;2.07;;;1.77;;
8333;SDS011;4204;43.004;23.052;2023-12-20T08:52:45;3.00;;;2.00;;
8333;SDS011;4204;43.004;23.052;2023-12-20T08:55:13;3.87;;;1.90;;
8333;SDS011;4204;43.004;23.052;2023-12-20T08:57:42;2.10;;;1.70;;
8333;SDS011;4204;43.004;23.052;2023-12-20T09:00:10;2.53;;;1.93;;
8333;SDS011;4204;43.004;23.052;2023-12-20T09:02:39;3.17;;;1.60;;
8333;SDS011;4204;43.004;23.052;2023-12-20T09:05:06;2.23;;;1.73;;
8333;SDS011;4204;43.004;23.052;2023-12-20T09:07:34;2.10;;;1.70;;
8333;SDS011;4204;43.004;23.052;2023-12-20T09:10:04;2.80;;;2.40;;
8333;SDS011;4204;43.004;23.052;2023-12-20T09:12:31;2.43;;;1.90;;
8333;SDS011;4204;43.004;23.052;2023-12-20T09:14:59;2.87;;;1.93;;
8333;SDS011;4204;43.004;23.052;2023-12-20T09:17:28;5.70;;;3.20;;
8333;SDS011;4204;43.004;23.052;2023-12-20T09:19:56;9.07;;;4.50;;
8333;SDS011;4204;43.004;23.052;2023-12-20T09:22:25;4.03;;;2.67;;
8333;SDS011;4204;43.004;23.052;2023-12-20T09:24:53;3.80;;;2.33;;
8333;SDS011;4204;43.004;23.052;2023-12-20T09:27:22;2.53;;;1.90;;
8333;SDS011;4204;43.004;23.052;2023-12-20T09:29:50;2.40;;;2.20;;
8333;SDS011;4204;43.004;23.052;2023-12-20T09:32:19;4.10;;;2.00;;
8333;SDS011;4204;43.004;23.052;2023-12-20T09:34:47;3.50;;;2.40;;
8333;SDS011;4204;43.004;23.052;2023-12-20T09:37:15;3.43;;;2.47;;
8333;SDS011;4204;43.004;23.052;2023-12-20T09:39:42;4.87;;;2.60;;
8333;SDS011;4204;43.004;23.052;2023-12-20T09:42:11;3.93;;;2.40;;
8333;SDS011;4204;43.004;23.052;2023-12-20T09:44:43;2.43;;;2.07;;
8333;SDS011;4204;43.004;23.052;2023-12-20T09:47:11;2.33;;;2.13;;
8333;SDS011;4204;43.004;23.052;2023-12-20T09:49:39;3.00;;;2.10;;
8333;SDS011;4204;43.004;23.052;2023-12-20T09:52:09;2.77;;;1.80;;
8333;SDS011;4204;43.004;23.052;2023-12-20T09:54:38;3.77;;;2.60;;
8333;SDS011;4204;43.004;23.052;2023-12-20T09:57:06;2.87;;;2.47;;
8333;SDS011;4204;43.004;23.052;2023-12-20T09:59:34;5.77;;;3.40;;
8333;SDS011;4204;43.004;23.052;2023-12-20T10:02:03;3.80;;;2.60;;
8333;SDS011;4204;43.004;23.052;2023-12-20T10:04:40;3.30;;;2.20;;
8333;SDS011;4204;43.004;23.052;2023-12-20T10:07:13;2.47;;;2.00;;
8333;SDS011;4204;43.004;23.052;2023-12-20T10:09:40;3.60;;;2.23;;
8333;SDS011;4204;43.004;23.052;2023-12-20T10:12:09;3.73;;;2.27;;
8333;SDS011;4204;43.004;23.052;2023-12-20T10:14:38;3.67;;;2.40;;
8333;SDS011;4204;43.004;23.052;2023-12-20T10:17:07;2.27;;;1.87;;
8333;SDS011;4204;43.004;23.052;2023-12-20T10:19:36;2.60;;;2.30;;
8333;SDS011;4204;43.004;23.052;2023-12-20T10:22:04;2.93;;;2.10;;
8333;SDS011;4204;43.004;23.052;2023-12-20T10:24:32;5.20;;;3.07;;
8333;SDS011;4204;43.004;23.052;2023-12-20T10:27:03;2.27;;;1.80;;
8333;SDS011;4204;43.004;23.052;2023-12-20T10:29:32;3.17;;;2.30;;
8333;SDS011;4204;43.004;23.052;2023-12-20T10:32:01;4.60;;;2.27;;
8333;SDS011;4204;43.004;23.052;2023-12-20T10:34:51;4.17;;;3.23;;
8333;SDS011;4204;43.004;23.052;2023-12-20T10:37:19;2.70;;;2.10;;
8333;SDS011;4204;43.004;23.052;2023-12-20T10:39:47;2.07;;;1.60;;
8333;SDS011;4204;43.004;23.052;2023-12-20T10:42:18;3.13;;;2.07;;
8333;SDS011;4204;43.004;23.052;2023-12-20T10:44:48;1.70;;;1.60;;
8333;SDS011;4204;43.004;23.052;2023-12-20T10:47:17;2.40;;;1.70;;
8333;SDS011;4204;43.004;23.052;2023-12-20T10:49:46;1.57;;;1.27;;
8333;SDS011;4204;43.004;23.052;2023-12-20T10:52:14;2.40;;;1.70;;
8333;SDS011;4204;43.004;23.052;2023-12-20T10:54:41;2.13;;;1.80;;
8333;SDS011;4204;43.004;23.052;2023-12-20T10:57:09;2.10;;;1.70;;
8333;SDS011;4204;43.004;23.052;2023-12-20T10:59:37;4.67;;;2.00;;
8333;SDS011;4204;43.004;23.052;2023-12-20T11:02:06;1.87;;;1.50;;
8333;SDS011;4204;43.004;23.052;2023-12-20T11:04:37;1.60;;;1.43;;
8333;SDS011;4204;43.004;23.052;2023-12-20T11:07:17;1.73;;;1.40;;
8333;SDS011;4204;43.004;23.052;2023-12-20T11:09:52;2.03;;;1.63;;
8333;SDS011;4204;43.004;23.052;2023-12-20T11:12:28;1.87;;;1.60;;
8333;SDS011;4204;43.004;23.052;2023-12-20T11:15:06;2.70;;;2.23;;
8333;SDS011;4204;43.004;23.052;2023-12-20T11:17:34;1.80;;;1.57;;
8333;SDS011;4204;43.004;23.052;2023-12-20T11:20:07;2.73;;;1.67;;
8333;SDS011;4204;43.004;23.052;2023-12-20T11:22:39;2.10;;;1.50;;
8333;SDS011;4204;43.004;23.052;2023-12-20T11:25:18;2.13;;;1.60;;
8333;SDS011;4204;43.004;23.052;2023-12-20T11:30:41;1.23;;;1.13;;
8333;SDS011;4204;43.004;23.052;2023-12-20T12:34:39;7.00;;;2.77;;
8333;SDS011;4204;43.004;23.052;2023-12-20T12:37:07;7.87;;;5.57;;
8333;SDS011;4204;43.004;23.052;2023-12-20T12:39:35;2.53;;;1.90;;
8333;SDS011;4204;43.004;23.052;2023-12-20T12:42:03;4.10;;;2.60;;
8333;SDS011;4204;43.004;23.052;2023-12-20T12:44:31;6.87;;;5.37;;
8333;SDS011;4204;43.004;23.052;2023-12-20T12:46:59;11.50;;;8.93;;
8333;SDS011;4204;43.004;23.052;2023-12-20T12:49:29;2.23;;;1.83;;
8333;SDS011;4204;43.004;23.052;2023-12-20T12:51:58;2.43;;;1.83;;
8333;SDS011;4204;43.004;23.052;2023-12-20T12:54:26;2.53;;;1.50;;
8333;SDS011;4204;43.004;23.052;2023-12-20T12:56:54;4.50;;;3.83;;
8333;SDS011;4204;43.004;23.052;2023-12-20T12:59:23;2.97;;;1.90;;
8333;SDS011;4204;43.004;23.052;2023-12-20T13:01:51;4.20;;;1.70;;
8333;SDS011;4204;43.004;23.052;2023-12-20T13:04:19;2.17;;;1.50;;
8333;SDS011;4204;43.004;23.052;2023-12-20T13:06:47;2.20;;;1.60;;
8333;SDS011;4204;43.004;23.052;2023-12-20T13:09:17;2.63;;;1.70;;
8333;SDS011;4204;43.004;23.052;2023-12-20T13:11:45;2.40;;;1.40;;
8333;SDS011;4204;43.004;23.052;2023-12-20T13:14:13;3.57;;;3.10;;
8333;SDS011;4204;43.004;23.052;2023-12-20T13:16:42;4.67;;;4.27;;
8333;SDS011;4204;43.004;23.052;2023-12-20T13:19:11;3.77;;;2.10;;
8333;SDS011;4204;43.004;23.052;2023-12-20T13:21:39;2.77;;;1.87;;
8333;SDS011;4204;43.004;23.052;2023-12-20T13:24:07;6.63;;;1.80;;
8333;SDS011;4204;43.004;23.052;2023-12-20T13:26:36;5.70;;;5.17;;
8333;SDS011;4204;43.004;23.052;2023-12-20T13:29:05;1.90;;;1.70;;
8333;SDS011;4204;43.004;23.052;2023-12-20T13:31:33;2.97;;;1.87;;
8333;SDS011;4204;43.004;23.052;2023-12-20T13:34:02;1.90;;;1.73;;
8333;SDS011;4204;43.004;23.052;2023-12-20T13:36:30;2.17;;;1.60;;
8333;SDS011;4204;43.004;23.052;2023-12-20T13:38:58;2.17;;;1.63;;
8333;SDS011;4204;43.004;23.052;2023-12-20T13:41:26;17.40;;;15.63;;
8333;SDS011;4204;43.004;23.052;2023-12-20T13:43:55;3.30;;;2.70;;
8333;SDS011;4204;43.004;23.052;2023-12-20T13:46:23;3.00;;;2.20;;
8333;SDS011;4204;43.004;23.052;2023-12-20T13:48:51;3.87;;;3.17;;
8333;SDS011;4204;43.004;23.052;2023-12-20T13:51:19;3.30;;;2.60;;
8333;SDS011;4204;43.004;23.052;2023-12-20T13:53:47;2.03;;;1.47;;
8333;SDS011;4204;43.004;23.052;2023-12-20T13:56:15;4.63;;;1.60;;
8333;SDS011;4204;43.004;23.052;2023-12-20T13:58:46;2.83;;;1.80;;
8333;SDS011;4204;43.004;23.052;2023-12-20T14:01:15;4.27;;;2.57;;
8333;SDS011;4204;43.004;23.052;2023-12-20T14:03:43;2.97;;;2.40;;
8333;SDS011;4204;43.004;23.052;2023-12-20T14:06:11;3.60;;;2.43;;
8333;SDS011;4204;43.004;23.052;2023-12-20T14:08:41;2.60;;;1.90;;
8333;SDS011;4204;43.004;23.052;2023-12-20T14:11:09;2.43;;;2.00;;
8333;SDS011;4204;43.004;23.052;2023-12-20T14:13:37;3.93;;;2.03;;
8333;SDS011;4204;43.004;23.052;2023-12-20T14:16:05;3.50;;;2.10;;
8333;SDS011;4204;43.004;23.052;2023-12-20T14:18:34;4.63;;;2.03;;
8333;SDS011;4204;43.004;23.052;2023-12-20T14:21:02;3.10;;;1.90;;
8333;SDS011;4204;43.004;23.052;2023-12-20T14:23:32;4.60;;;2.00;;
8333;SDS011;4204;43.004;23.052;2023-12-20T14:26:01;2.77;;;1.80;;
8333;SDS011;4204;43.004;23.052;2023-12-20T14:28:29;2.00;;;1.80;;
8333;SDS011;4204;43.004;23.052;2023-12-20T14:30:57;4.47;;;1.70;;
8333;SDS011;4204;43.004;23.052;2023-12-20T14:33:25;3.57;;;2.30;;
8333;SDS011;4204;43.004;23.052;2023-12-20T14:35:55;2.07;;;1.57;;
8333;SDS011;4204;43.004;23.052;2023-12-20T14:38:23;1.77;;;1.50;;
8333;SDS011;4204;43.004;23.052;2023-12-20T14:40:51;2.60;;;1.70;;
8333;SDS011;4204;43.004;23.052;2023-12-20T14:43:20;11.37;;;5.50;;
8333;SDS011;4204;43.004;23.052;2023-12-20T14:45:48;30.23;;;12.87;;
8333;SDS011;4204;43.004;23.052;2023-12-20T14:48:16;36.53;;;15.80;;
8333;SDS011;4204;43.004;23.052;2023-12-20T14:50:45;32.03;;;17.03;;
8333;SDS011;4204;43.004;23.052;2023-12-20T14:53:16;41.03;;;20.97;;
8333;SDS011;4204;43.004;23.052;2023-12-20T14:55:44;29.67;;;15.90;;
8333;SDS011;4204;43.004;23.052;2023-12-20T14:58:13;22.03;;;11.30;;
8333;SDS011;4204;43.004;23.052;2023-12-20T15:00:42;9.13;;;6.10;;
8333;SDS011;4204;43.004;23.052;2023-12-20T15:03:11;6.17;;;4.00;;
8333;SDS011;4204;43.004;23.052;2023-12-20T15:05:43;10.87;;;6.40;;
8333;SDS011;4204;43.004;23.052;2023-12-20T15:08:16;15.93;;;9.33;;
8333;SDS011;4204;43.004;23.052;2023-12-20T15:10:43;11.13;;;7.17;;
8333;SDS011;4204;43.004;23.052;2023-12-20T15:13:11;22.87;;;13.37;;
8333;SDS011;4204;43.004;23.052;2023-12-20T15:15:39;12.33;;;6.67;;
8333;SDS011;4204;43.004;23.052;2023-12-20T15:18:07;17.53;;;10.47;;
8333;SDS011;4204;43.004;23.052;2023-12-20T15:20:36;11.93;;;7.80;;
8333;SDS011;4204;43.004;23.052;2023-12-20T15:23:04;15.50;;;8.73;;
8333;SDS011;4204;43.004;23.052;2023-12-20T15:25:35;14.80;;;8.67;;
8333;SDS011;4204;43.004;23.052;2023-12-20T15:28:04;12.90;;;6.80;;
8333;SDS011;4204;43.004;23.052;2023-12-20T15:30:32;54.63;;;26.00;;
8333;SDS011;4204;43.004;23.052;2023-12-20T15:33:01;50.33;;;23.97;;
8333;SDS011;4204;43.004;23.052;2023-12-20T15:35:29;15.40;;;8.90;;
8333;SDS011;4204;43.004;23.052;2023-12-20T15:37:58;12.50;;;8.10;;
8333;SDS011;4204;43.004;23.052;2023-12-20T15:40:26;13.87;;;9.10;;
8333;SDS011;4204;43.004;23.052;2023-12-20T15:42:55;23.17;;;14.03;;
8333;SDS011;4204;43.004;23.052;2023-12-20T15:45:26;15.50;;;9.37;;
8333;SDS011;4204;43.004;23.052;2023-12-20T15:47:57;38.27;;;21.17;;
8333;SDS011;4204;43.004;23.052;2023-12-20T15:50:29;30.70;;;18.57;;
8333;SDS011;4204;43.004;23.052;2023-12-20T15:52:58;12.83;;;9.20;;
8333;SDS011;4204;43.004;23.052;2023-12-20T15:55:26;10.20;;;5.80;;
8333;SDS011;4204;43.004;23.052;2023-12-20T15:57:56;18.73;;;10.43;;
8333;SDS011;4204;43.004;23.052;2023-12-20T16:00:25;20.33;;;11.27;;
8333;SDS011;4204;43.004;23.052;2023-12-20T16:02:53;11.70;;;7.03;;
8333;SDS011;4204;43.004;23.052;2023-12-20T16:05:24;19.33;;;10.77;;
8333;SDS011;4204;43.004;23.052;2023-12-20T16:07:52;21.50;;;12.20;;
8333;SDS011;4204;43.004;23.052;2023-12-20T16:10:22;14.50;;;8.40;;
8333;SDS011;4204;43.004;23.052;2023-12-20T16:12:51;18.97;;;12.37;;
8333;SDS011;4204;43.004;23.052;2023-12-20T16:15:28;8.87;;;5.77;;
8333;SDS011;4204;43.004;23.052;2023-12-20T16:17:56;7.93;;;5.13;;
8333;SDS011;4204;43.004;23.052;2023-12-20T16:20:29;7.23;;;4.70;;
8333;SDS011;4204;43.004;23.052;2023-12-20T16:22:57;16.57;;;10.80;;
8333;SDS011;4204;43.004;23.052;2023-12-20T16:25:26;16.50;;;11.63;;
8333;SDS011;4204;43.004;23.052;2023-12-20T16:27:54;11.37;;;7.57;;
8333;SDS011;4204;43.004;23.052;2023-12-20T16:30:22;12.17;;;8.97;;
8333;SDS011;4204;43.004;23.052;2023-12-20T16:32:53;9.77;;;7.03;;
8333;SDS011;4204;43.004;23.052;2023-12-20T16:35:21;26.50;;;15.73;;
8333;SDS011;4204;43.004;23.052;2023-12-20T16:37:49;31.57;;;17.13;;
8333;SDS011;4204;43.004;23.052;2023-12-20T16:40:17;26.73;;;16.20;;
8333;SDS011;4204;43.004;23.052;2023-12-20T16:42:51;17.53;;;13.37;;
8333;SDS011;4204;43.004;23.052;2023-12-20T16:45:20;18.63;;;10.80;;
8333;SDS011;4204;43.004;23.052;2023-12-20T16:47:48;10.97;;;6.30;;
8333;SDS011;4204;43.004;23.052;2023-12-20T16:50:18;9.90;;;6.53;;
8333;SDS011;4204;43.004;23.052;2023-12-20T16:52:49;8.47;;;6.53;;
8333;SDS011;4204;43.004;23.052;2023-12-20T16:55:19;7.67;;;6.13;;
8333;SDS011;4204;43.004;23.052;2023-12-20T16:57:47;14.60;;;8.40;;
8333;SDS011;4204;43.004;23.052;2023-12-20T17:00:15;11.77;;;8.30;;
8333;SDS011;4204;43.004;23.052;2023-12-20T17:02:45;13.73;;;9.20;;
8333;SDS011;4204;43.004;23.052;2023-12-20T17:05:19;8.37;;;5.60;;
8333;SDS011;4204;43.004;23.052;2023-12-20T17:07:47;9.63;;;5.10;;
8333;SDS011;4204;43.004;23.052;2023-12-20T17:10:15;7.00;;;5.37;;
8333;SDS011;4204;43.004;23.052;2023-12-20T17:12:43;11.43;;;6.20;;
8333;SDS011;4204;43.004;23.052;2023-12-20T17:15:11;7.17;;;5.87;;
8333;SDS011;4204;43.004;23.052;2023-12-20T17:17:40;6.77;;;4.67;;
8333;SDS011;4204;43.004;23.052;2023-12-20T17:20:09;6.03;;;3.93;;
8333;SDS011;4204;43.004;23.052;2023-12-20T17:22:38;8.03;;;4.60;;
8333;SDS011;4204;43.004;23.052;2023-12-20T17:25:06;6.77;;;4.33;;
8333;SDS011;4204;43.004;23.052;2023-12-20T17:27:37;3.23;;;2.30;;
8333;SDS011;4204;43.004;23.052;2023-12-20T17:30:06;5.73;;;3.40;;
8333;SDS011;4204;43.004;23.052;2023-12-20T17:32:35;3.57;;;3.00;;
8333;SDS011;4204;43.004;23.052;2023-12-20T17:35:07;6.00;;;4.40;;
8333;SDS011;4204;43.004;23.052;2023-12-20T17:37:35;10.17;;;6.87;;
8333;SDS011;4204;43.004;23.052;2023-12-20T17:40:05;36.60;;;18.60;;
8333;SDS011;4204;43.004;23.052;2023-12-20T17:42:35;44.83;;;23.30;;
8333;SDS011;4204;43.004;23.052;2023-12-20T17:45:03;18.30;;;10.20;;
8333;SDS011;4204;43.004;23.052;2023-12-20T17:47:31;5.40;;;4.17;;
8333;SDS011;4204;43.004;23.052;2023-12-20T17:49:59;7.20;;;4.03;;
8333;SDS011;4204;43.004;23.052;2023-12-20T17:52:28;6.40;;;3.57;;
8333;SDS011;4204;43.004;23.052;2023-12-20T17:55:01;17.00;;;9.00;;
8333;SDS011;4204;43.004;23.052;2023-12-20T17:57:30;17.37;;;9.07;;
8333;SDS011;4204;43.004;23.052;2023-12-20T17:59:59;31.00;;;14.43;;
8333;SDS011;4204;43.004;23.052;2023-12-20T18:02:40;18.80;;;10.40;;
8333;SDS011;4204;43.004;23.052;2023-12-20T18:05:08;13.30;;;7.30;;
8333;SDS011;4204;43.004;23.052;2023-12-20T18:07:37;123.47;;;44.17;;
8333;SDS011;4204;43.004;23.052;2023-12-20T18:10:06;97.27;;;39.73;;
8333;SDS011;4204;43.004;23.052;2023-12-20T18:12:36;37.33;;;16.70;;
8333;SDS011;4204;43.004;23.052;2023-12-20T18:15:04;32.03;;;17.40;;
8333;SDS011;4204;43.004;23.052;2023-12-20T18:17:33;33.57;;;15.37;;
8333;SDS011;4204;43.004;23.052;2023-12-20T18:20:01;34.60;;;17.13;;
8333;SDS011;4204;43.004;23.052;2023-12-20T18:22:30;27.60;;;13.57;;
8333;SDS011;4204;43.004;23.052;2023-12-20T18:24:57;21.43;;;11.20;;
8333;SDS011;4204;43.004;23.052;2023-12-20T18:27:25;25.03;;;13.10;;
8333;SDS011;4204;43.004;23.052;2023-12-20T18:29:55;15.47;;;8.97;;
8333;SDS011;4204;43.004;23.052;2023-12-20T18:32:24;16.00;;;8.43;;
8333;SDS011;4204;43.004;23.052;2023-12-20T18:34:52;20.50;;;11.83;;
8333;SDS011;4204;43.004;23.052;2023-12-20T18:37:20;19.93;;;10.73;;
8333;SDS011;4204;43.004;23.052;2023-12-20T18:39:48;20.47;;;11.23;;
8333;SDS011;4204;43.004;23.052;2023-12-20T18:42:16;13.67;;;7.30;;
8333;SDS011;4204;43.004;23.052;2023-12-20T18:44:44;11.20;;;6.73;;
8333;SDS011;4204;43.004;23.052;2023-12-20T18:47:14;12.13;;;8.73;;
8333;SDS011;4204;43.004;23.052;2023-12-20T18:49:41;16.73;;;8.40;;
8333;SDS011;4204;43.004;23.052;2023-12-20T18:52:10;12.97;;;7.93;;
8333;SDS011;4204;43.004;23.052;2023-12-20T18:54:38;11.63;;;6.90;;
8333;SDS011;4204;43.004;23.052;2023-12-20T18:57:06;12.43;;;6.73;;
8333;SDS011;4204;43.004;23.052;2023-12-20T18:59:35;6.20;;;4.83;;
8333;SDS011;4204;43.004;23.052;2023-12-20T19:02:03;10.30;;;5.77;;
8333;SDS011;4204;43.004;23.052;2023-12-20T19:04:35;9.27;;;6.73;;
8333;SDS011;4204;43.004;23.052;2023-12-20T19:07:04;10.80;;;6.33;;
8333;SDS011;4204;43.004;23.052;2023-12-20T19:09:32;13.93;;;9.30;;
8333;SDS011;4204;43.004;23.052;2023-12-20T19:12:00;16.20;;;8.77;;
8333;SDS011;4204;43.004;23.052;2023-12-20T19:14:28;13.87;;;9.03;;
8333;SDS011;4204;43.004;23.052;2023-12-20T19:16:57;17.77;;;9.87;;
8333;SDS011;4204;43.004;23.052;2023-12-20T19:19:27;12.00;;;7.27;;
8333;SDS011;4204;43.004;23.052;2023-12-20T19:21:57;9.60;;;5.93;;
8333;SDS011;4204;43.004;23.052;2023-12-20T19:24:25;11.17;;;6.50;;
8333;SDS011;4204;43.004;23.052;2023-12-20T19:26:53;9.43;;;6.33;;
8333;SDS011;4204;43.004;23.052;2023-12-20T19:29:23;7.60;;;5.30;;
8333;SDS011;4204;43.004;23.052;2023-12-20T19:31:51;8.77;;;5.20;;
8333;SDS011;4204;43.004;23.052;2023-12-20T19:34:20;13.00;;;7.07;;
8333;SDS011;4204;43.004;23.052;2023-12-20T19:36:48;16.83;;;11.10;;
8333;SDS011;4204;43.004;23.052;2023-12-20T19:39:18;12.17;;;7.00;;
8333;SDS011;4204;43.004;23.052;2023-12-20T19:41:46;10.83;;;6.77;;
8333;SDS011;4204;43.004;23.052;2023-12-20T19:44:14;10.43;;;6.30;;
8333;SDS011;4204;43.004;23.052;2023-12-20T19:46:43;9.17;;;6.33;;
8333;SDS011;4204;43.004;23.052;2023-12-20T19:49:14;9.33;;;6.57;;
8333;SDS011;4204;43.004;23.052;2023-12-20T19:51:42;8.53;;;5.83;;
8333;SDS011;4204;43.004;23.052;2023-12-20T19:54:10;9.63;;;6.30;;
8333;SDS011;4204;43.004;23.052;2023-12-20T19:56:39;8.13;;;5.20;;
8333;SDS011;4204;43.004;23.052;2023-12-20T19:59:07;8.93;;;5.60;;
8333;SDS011;4204;43.004;23.052;2023-12-20T20:01:35;12.00;;;6.27;;
8333;SDS011;4204;43.004;23.052;2023-12-20T20:04:06;6.93;;;5.17;;
8333;SDS011;4204;43.004;23.052;2023-12-20T20:06:34;9.50;;;4.50;;
8333;SDS011;4204;43.004;23.052;2023-12-20T20:09:02;7.23;;;5.17;;
8333;SDS011;4204;43.004;23.052;2023-12-20T20:11:30;8.17;;;5.03;;
8333;SDS011;4204;43.004;23.052;2023-12-20T20:14:00;11.57;;;6.87;;
8333;SDS011;4204;43.004;23.052;2023-12-20T20:16:28;11.93;;;6.03;;
8333;SDS011;4204;43.004;23.052;2023-12-20T20:18:56;10.73;;;6.60;;
8333;SDS011;4204;43.004;23.052;2023-12-20T20:21:24;8.03;;;5.00;;
8333;SDS011;4204;43.004;23.052;2023-12-20T20:23:53;8.53;;;5.33;;
8333;SDS011;4204;43.004;23.052;2023-12-20T20:26:21;5.67;;;4.07;;
8333;SDS011;4204;43.004;23.052;2023-12-20T20:28:50;8.47;;;4.33;;
8333;SDS011;4204;43.004;23.052;2023-12-20T20:31:20;7.13;;;4.57;;
8333;SDS011;4204;43.004;23.052;2023-12-20T20:33:49;10.50;;;6.77;;
8333;SDS011;4204;43.004;23.052;2023-12-20T20:36:17;12.37;;;6.70;;
8333;SDS011;4204;43.004;23.052;2023-12-20T20:38:45;12.43;;;5.93;;
8333;SDS011;4204;43.004;23.052;2023-12-20T20:41:13;9.43;;;5.63;;
8333;SDS011;4204;43.004;23.052;2023-12-20T20:43:41;5.87;;;3.70;;
8333;SDS011;4204;43.004;23.052;2023-12-20T20:46:09;6.97;;;4.10;;
8333;SDS011;4204;43.004;23.052;2023-12-20T20:48:38;6.23;;;4.40;;
8333;SDS011;4204;43.004;23.052;2023-12-20T20:51:06;7.03;;;4.47;;
8333;SDS011;4204;43.004;23.052;2023-12-20T20:53:34;9.30;;;5.70;;
8333;SDS011;4204;43.004;23.052;2023-12-20T20:56:02;8.50;;;5.60;;
8333;SDS011;4204;43.004;23.052;2023-12-20T20:58:31;9.67;;;5.20;;
8333;SDS011;4204;43.004;23.052;2023-12-20T21:01:00;8.90;;;5.93;;
8333;SDS011;4204;43.004;23.052;2023-12-20T21:03:28;9.43;;;6.07;;
8333;SDS011;4204;43.004;23.052;2023-12-20T21:05:57;7.40;;;5.30;;
8333;SDS011;4204;43.004;23.052;2023-12-20T21:08:25;10.17;;;6.27;;
8333;SDS011;4204;43.004;23.052;2023-12-20T21:10:54;8.43;;;5.80;;
8333;SDS011;4204;43.004;23.052;2023-12-20T21:13:24;7.63;;;5.47;;
8333;SDS011;4204;43.004;23.052;2023-12-20T21:15:52;10.17;;;5.23;;
8333;SDS011;4204;43.004;23.052;2023-12-20T21:18:21;8.63;;;4.93;;
8333;SDS011;4204;43.004;23.052;2023-12-20T21:20:49;7.23;;;4.47;;
8333;SDS011;4204;43.004;23.052;2023-12-20T21:23:18;7.50;;;4.73;;
8333;SDS011;4204;43.004;23.052;2023-12-20T21:25:47;6.80;;;4.50;;
8333;SDS011;4204;43.004;23.052;2023-12-20T21:28:15;10.97;;;5.30;;
8333;SDS011;4204;43.004;23.052;2023-12-20T21:30:43;7.67;;;4.80;;
8333;SDS011;4204;43.004;23.052;2023-12-20T21:33:11;10.20;;;5.67;;
8333;SDS011;4204;43.004;23.052;2023-12-20T21:35:40;9.40;;;5.97;;
8333;SDS011;4204;43.004;23.052;2023-12-20T21:38:08;10.90;;;7.20;;
8333;SDS011;4204;43.004;23.052;2023-12-20T21:40:38;11.73;;;6.83;;
8333;SDS011;4204;43.004;23.052;2023-12-20T21:43:06;11.57;;;7.83;;
8333;SDS011;4204;43.004;23.052;2023-12-20T21:45:34;12.30;;;7.70;;
8333;SDS011;4204;43.004;23.052;2023-12-20T21:48:02;13.73;;;8.43;;
8333;SDS011;4204;43.004;23.052;2023-12-20T21:50:31;11.50;;;7.40;;
8333;SDS011;4204;43.004;23.052;2023-12-20T21:52:59;13.97;;;7.40;;
8333;SDS011;4204;43.004;23.052;2023-12-20T21:55:27;15.70;;;8.77;;
8333;SDS011;4204;43.004;23.052;2023-12-20T21:57:58;13.10;;;9.00;;
8333;SDS011;4204;43.004;23.052;2023-12-20T22:00:26;13.07;;;8.10;;
8333;SDS011;4204;43.004;23.052;2023-12-20T22:02:55;12.43;;;8.07;;
8333;SDS011;4204;43.004;23.052;2023-12-20T22:05:24;12.80;;;8.10;;
8333;SDS011;4204;43.004;23.052;2023-12-20T22:07:52;14.90;;;8.97;;
8333;SDS011;4204;43.004;23.052;2023-12-20T22:10:20;12.37;;;7.93;;
8333;SDS011;4204;43.004;23.052;2023-12-20T22:12:48;16.20;;;9.30;;
8333;SDS011;4204;43.004;23.052;2023-12-20T22:15:17;12.80;;;8.73;;
8333;SDS011;4204;43.004;23.052;2023-12-20T22:17:45;14.33;;;8.93;;
8333;SDS011;4204;43.004;23.052;2023-12-20T22:20:13;17.00;;;10.33;;
8333;SDS011;4204;43.004;23.052;2023-12-20T22:22:41;20.23;;;10.93;;
8333;SDS011;4204;43.004;23.052;2023-12-20T22:25:10;16.43;;;10.43;;
8333;SDS011;4204;43.004;23.052;2023-12-20T22:27:38;18.30;;;11.70;;
8333;SDS011;4204;43.004;23.052;2023-12-20T22:30:06;20.50;;;12.13;;
8333;SDS011;4204;43.004;23.052;2023-12-20T22:32:36;17.53;;;10.90;;
8333;SDS011;4204;43.004;23.052;2023-12-20T22:35:05;19.87;;;10.57;;
8333;SDS011;4204;43.004;23.052;2023-12-20T22:37:34;20.27;;;10.80;;
8333;SDS011;4204;43.004;23.052;2023-12-20T22:40:03;18.20;;;10.60;;
8333;SDS011;4204;43.004;23.052;2023-12-20T22:42:32;19.93;;;11.33;;
8333;SDS011;4204;43.004;23.052;2023-12-20T22:45:00;21.70;;;11.63;;
8333;SDS011;4204;43.004;23.052;2023-12-20T22:47:28;21.97;;;11.57;;
8333;SDS011;4204;43.004;23.052;2023-12-20T22:49:58;18.93;;;10.67;;
8333;SDS011;4204;43.004;23.052;2023-12-20T22:52:28;16.30;;;11.13;;
8333;SDS011;4204;43.004;23.052;2023-12-20T22:54:56;17.53;;;11.17;;
8333;SDS011;4204;43.004;23.052;2023-12-20T22:57:24;22.40;;;12.57;;
8333;SDS011;4204;43.004;23.052;2023-12-20T22:59:52;20.50;;;11.83;;
8333;SDS011;4204;43.004;23.052;2023-12-20T23:02:20;19.50;;;11.03;;
8333;SDS011;4204;43.004;23.052;2023-12-20T23:04:48;18.00;;;10.40;;
8333;SDS011;4204;43.004;23.052;2023-12-20T23:07:20;20.00;;;10.53;;
8333;SDS011;4204;43.004;23.052;2023-12-20T23:09:48;19.93;;;11.80;;
8333;SDS011;4204;43.004;23.052;2023-12-20T23:12:16;22.53;;;12.37;;
8333;SDS011;4204;43.004;23.052;2023-12-20T23:14:43;21.23;;;12.27;;
8333;SDS011;4204;43.004;23.052;2023-12-20T23:17:11;21.80;;;12.90;;
8333;SDS011;4204;43.004;23.052;2023-12-20T23:19:39;20.23;;;12.47;;
8333;SDS011;4204;43.004;23.052;2023-12-20T23:22:07;19.87;;;12.13;;
8333;SDS011;4204;43.004;23.052;2023-12-20T23:24:37;24.00;;;12.80;;
8333;SDS011;4204;43.004;23.052;2023-12-20T23:27:05;19.83;;;11.47;;
8333;SDS011;4204;43.004;23.052;2023-12-20T23:29:33;20.50;;;11.80;;
8333;SDS011;4204;43.004;23.052;2023-12-20T23:32:01;23.07;;;13.53;;
8333;SDS011;4204;43.004;23.052;2023-12-20T23:34:29;21.67;;;12.57;;
8333;SDS011;4204;43.004;23.052;2023-12-20T23:36:56;19.47;;;12.20;;
8333;SDS011;4204;43.004;23.052;2023-12-20T23:39:24;20.87;;;12.03;;
8333;SDS011;4204;43.004;23.052;2023-12-20T23:41:53;18.53;;;11.20;;
8333;SDS011;4204;43.004;23.052;2023-12-20T23:44:22;22.80;;;13.63;;
8333;SDS011;4204;43.004;23.052;2023-12-20T23:46:52;22.10;;;13.97;;